Time;durP1;ratioP1;P1;durP2;ratioP2;P2;SDS_P1;SDS_P2;PMS_P1;PMS_P2;Temp;Humidity;BMP_temperature;BMP_pressure;BME280_temperature;BME280_humidity;BME280_pressure;Samples;Min_cycle;Max_cycle;Signal;HPM_P1;HPM_P2
2022/07/02 00:00:49;;;;;;;6.38;1.05;;;13.70;99.90;;;;;;4922035;29;20349;-92
2022/07/02 00:03:33;;;;;;;2.60;0.82;;;13.60;99.90;;;;;;4938936;29;20020;-92
2022/07/02 00:06:01;;;;;;;4.13;0.73;;;13.60;99.90;;;;;;4921245;29;20024;-92
2022/07/02 00:08:28;;;;;;;2.33;0.80;;;13.60;99.90;;;;;;4921295;29;20107;-92
2022/07/02 00:10:57;;;;;;;5.68;2.00;;;13.60;99.90;;;;;;4921197;29;20457;-92
2022/07/02 00:13:25;;;;;;;3.85;1.00;;;13.60;99.90;;;;;;4920638;29;20481;-91
2022/07/02 00:15:51;;;;;;;5.22;1.27;;;13.60;99.90;;;;;;4920862;29;20031;-91
2022/07/02 00:18:18;;;;;;;6.57;1.15;;;13.50;99.90;;;;;;4920549;29;20123;-91
2022/07/02 00:20:44;;;;;;;4.97;1.00;;;13.50;99.90;;;;;;4920416;29;20042;-91
2022/07/02 00:23:11;;;;;;;2.55;1.10;;;13.50;99.90;;;;;;4920708;29;20027;-92
2022/07/02 00:25:42;;;;;;;7.50;1.10;;;13.50;99.90;;;;;;4921528;29;20024;-90
2022/07/02 00:28:10;;;;;;;;;;;13.50;99.90;;;;;;4932141;29;20051;-92
2022/07/02 00:30:39;;;;;;;8.32;1.00;;;13.50;99.90;;;;;;4948026;29;19907;-91
2022/07/02 00:33:05;;;;;;;3.70;0.95;;;13.50;99.90;;;;;;4941792;29;20539;-92
2022/07/02 00:35:33;;;;;;;7.25;1.08;;;13.50;99.90;;;;;;4972720;28;20035;-91
2022/07/02 00:38:04;;;;;;;12.50;2.53;;;13.50;99.90;;;;;;4972523;28;20031;-92
2022/07/02 00:40:31;;;;;;;2.63;1.05;;;13.50;99.90;;;;;;4941083;29;20027;-92
2022/07/02 00:42:58;;;;;;;4.40;1.60;;;13.40;99.90;;;;;;4940224;29;20038;-91
2022/07/02 00:45:26;;;;;;;6.43;1.60;;;13.40;99.90;;;;;;4971907;28;20019;-92
2022/07/02 00:47:54;;;;;;;5.20;1.58;;;13.40;99.90;;;;;;4932788;29;20062;-91
2022/07/02 00:50:21;;;;;;;7.40;1.92;;;13.40;99.90;;;;;;4939788;29;20028;-91
2022/07/02 00:52:47;;;;;;;3.75;1.42;;;13.40;99.90;;;;;;4939567;29;20031;-92
2022/07/02 00:55:13;;;;;;;4.03;1.48;;;13.40;99.90;;;;;;4972442;28;20458;-92
2022/07/02 00:57:39;;;;;;;5.63;2.17;;;13.40;99.90;;;;;;4941670;29;20031;-92
2022/07/02 01:00:07;;;;;;;6.82;1.67;;;13.30;99.90;;;;;;4942670;29;20057;-92
2022/07/02 01:02:35;;;;;;;3.25;1.55;;;13.30;99.90;;;;;;4972982;28;20419;-92
2022/07/02 01:05:01;;;;;;;7.72;1.90;;;13.30;99.90;;;;;;4972606;28;20067;-92
2022/07/02 01:07:30;;;;;;;6.30;1.60;;;13.30;99.90;;;;;;4972417;28;20362;-91
2022/07/02 01:10:16;;;;;;;5.15;1.40;;;13.20;99.90;;;;;;4972941;28;20073;-91
2022/07/02 01:12:45;;;;;;;5.00;1.70;;;13.20;99.90;;;;;;4971840;28;20032;-91
2022/07/02 01:15:11;;;;;;;11.05;1.52;;;13.20;99.90;;;;;;4971746;28;20058;-91
2022/07/02 01:17:37;;;;;;;7.43;1.55;;;13.20;99.90;;;;;;4971922;28;20024;-92
2022/07/02 01:20:04;;;;;;;3.45;1.40;;;13.20;99.90;;;;;;4972205;28;20142;-92
2022/07/02 01:22:40;;;;;;;6.65;1.70;;;13.10;99.90;;;;;;4939638;29;20605;-90
2022/07/02 01:25:07;;;;;;;6.45;1.70;;;13.10;99.90;;;;;;4971639;28;20484;-93
2022/07/02 01:27:36;;;;;;;8.40;1.85;;;13.00;99.90;;;;;;4938660;29;20180;-92
2022/07/02 01:30:03;;;;;;;9.20;1.63;;;13.00;99.90;;;;;;4924074;29;20031;-91
2022/07/02 01:32:29;;;;;;;3.38;1.45;;;13.00;99.90;;;;;;4970694;28;20046;-92
2022/07/02 01:35:03;;;;;;;7.30;1.67;;;13.00;99.90;;;;;;4971847;28;20035;-92
2022/07/02 01:37:29;;;;;;;4.45;1.30;;;12.90;99.90;;;;;;4939667;29;20083;-93
2022/07/02 01:39:56;;;;;;;6.22;1.52;;;12.90;99.90;;;;;;4955828;29;20054;-92
2022/07/02 01:42:22;;;;;;;3.47;1.25;;;12.90;99.90;;;;;;4939702;29;20492;-91
2022/07/02 01:44:48;;;;;;;4.15;1.77;;;12.80;99.90;;;;;;4971673;28;20031;-93
2022/07/02 01:47:14;;;;;;;4.82;1.60;;;12.80;99.90;;;;;;4973644;28;20019;-92
2022/07/02 01:49:41;;;;;;;4.85;1.50;;;12.70;99.90;;;;;;4980833;28;20035;-91
2022/07/02 01:52:07;;;;;;;4.30;1.50;;;12.70;99.90;;;;;;4940753;29;20098;-93
2022/07/02 01:54:33;;;;;;;5.97;1.35;;;12.70;99.90;;;;;;4972059;28;20039;-92
2022/07/02 01:57:00;;;;;;;5.47;1.42;;;12.60;99.90;;;;;;4971087;28;20031;-92
2022/07/02 01:59:25;;;;;;;5.10;2.03;;;12.60;99.90;;;;;;4970787;28;20020;-91
2022/07/02 02:01:51;;;;;;;5.95;1.40;;;12.60;99.90;;;;;;4971767;28;20034;-91
2022/07/02 02:04:18;;;;;;;4.15;1.17;;;12.50;99.90;;;;;;4939749;29;20544;-91
2022/07/02 02:06:45;;;;;;;6.05;1.30;;;12.40;99.90;;;;;;4923685;29;20043;-91
2022/07/02 02:09:11;;;;;;;3.33;1.60;;;12.50;99.90;;;;;;4971038;28;20079;-91
2022/07/02 02:11:36;;;;;;;5.30;1.17;;;12.50;99.90;;;;;;4971056;28;20511;-91
2022/07/02 02:14:02;;;;;;;5.10;1.10;;;12.40;99.90;;;;;;4971327;28;20034;-91
2022/07/02 02:16:31;;;;;;;8.65;1.40;;;12.40;99.90;;;;;;4971395;28;20034;-91
2022/07/02 02:18:58;;;;;;;5.28;1.52;;;12.30;99.90;;;;;;4939179;29;20027;-91
2022/07/02 02:21:26;;;;;;;5.55;1.50;;;12.30;99.90;;;;;;4970846;28;20397;-91
2022/07/02 02:23:53;;;;;;;3.67;1.48;;;12.20;99.90;;;;;;4970008;28;20039;-92
2022/07/02 02:26:19;;;;;;;10.98;1.83;;;12.20;99.90;;;;;;4970094;28;20035;-92
2022/07/02 02:28:45;;;;;;;5.20;1.35;;;12.20;99.90;;;;;;4937569;29;20054;-91
2022/07/02 02:31:11;;;;;;;2.40;1.00;;;12.20;99.90;;;;;;4969896;28;20366;-92
2022/07/02 02:33:37;;;;;;;3.72;1.25;;;12.10;99.90;;;;;;4970316;28;20029;-92
2022/07/02 02:36:03;;;;;;;6.88;1.10;;;12.10;99.90;;;;;;4938622;29;20038;-93
2022/07/02 02:38:29;;;;;;;4.43;1.20;;;12.10;99.90;;;;;;4970168;28;20031;-91
2022/07/02 02:40:55;;;;;;;5.32;1.20;;;12.00;99.90;;;;;;4971223;28;20020;-92
2022/07/02 02:43:20;;;;;;;5.82;1.15;;;12.00;99.90;;;;;;4970680;28;20038;-92
2022/07/02 02:45:48;;;;;;;8.65;1.70;;;12.00;99.90;;;;;;4970861;28;20034;-91
2022/07/02 02:48:15;;;;;;;3.42;1.23;;;12.00;99.90;;;;;;4973291;28;20039;-92
2022/07/02 02:50:41;;;;;;;5.63;1.60;;;12.00;99.90;;;;;;4939189;29;20037;-92
2022/07/02 02:53:07;;;;;;;4.18;1.30;;;12.00;99.90;;;;;;4938185;29;20028;-92
2022/07/02 02:55:33;;;;;;;5.70;1.25;;;12.00;99.90;;;;;;4969966;28;20031;-92
2022/07/02 02:58:06;;;;;;;4.55;1.10;;;11.90;99.90;;;;;;4970337;28;20126;-90
2022/07/02 03:00:31;;;;;;;4.85;1.02;;;11.90;99.90;;;;;;4969803;28;20020;-93
2022/07/02 03:02:57;;;;;;;5.60;1.15;;;11.90;99.90;;;;;;4970566;28;20035;-93
2022/07/02 03:05:23;;;;;;;4.97;1.27;;;11.90;99.90;;;;;;4938920;29;20023;-92
2022/07/02 03:07:49;;;;;;;4.15;1.00;;;11.90;99.90;;;;;;4980366;28;20196;-92
2022/07/02 03:10:14;;;;;;;4.38;1.20;;;11.90;99.90;;;;;;4972702;28;20126;-91
2022/07/02 03:12:40;;;;;;;5.05;1.30;;;11.80;99.90;;;;;;4971562;28;20035;-91
2022/07/02 03:15:06;;;;;;;5.20;1.20;;;11.80;99.90;;;;;;4971309;28;20042;-90
2022/07/02 03:17:33;;;;;;;4.70;1.73;;;11.80;99.90;;;;;;4955834;29;20023;-92
2022/07/02 03:19:59;;;;;;;2.95;1.10;;;11.80;99.90;;;;;;4938246;29;20126;-91
2022/07/02 03:22:24;;;;;;;3.10;1.17;;;11.80;99.90;;;;;;4970004;28;20239;-90
2022/07/02 03:24:51;;;;;;;2.95;1.40;;;11.80;99.90;;;;;;4969090;28;20370;-89
2022/07/02 03:27:18;;;;;;;2.92;1.23;;;11.80;99.90;;;;;;4970277;28;20417;-91
2022/07/02 03:29:44;;;;;;;6.50;2.08;;;11.80;99.90;;;;;;4969693;28;20036;-90
2022/07/02 03:32:09;;;;;;;2.40;1.05;;;11.80;99.90;;;;;;4969919;28;20032;-91
2022/07/02 03:34:35;;;;;;;6.03;1.20;;;11.80;99.90;;;;;;4969965;28;20028;-92
2022/07/02 03:37:01;;;;;;;5.25;1.38;;;11.80;99.90;;;;;;4969577;28;20027;-91
2022/07/02 03:39:27;;;;;;;8.95;1.17;;;11.80;99.90;;;;;;4970426;28;20280;-90
2022/07/02 03:41:52;;;;;;;4.97;1.27;;;11.80;99.90;;;;;;4937970;29;20396;-92
2022/07/02 03:44:19;;;;;;;9.77;1.60;;;11.80;99.90;;;;;;4970082;28;20476;-92
2022/07/02 03:46:45;;;;;;;4.40;1.13;;;11.80;99.90;;;;;;4969979;28;20078;-92
2022/07/02 03:49:11;;;;;;;6.63;1.60;;;11.80;99.90;;;;;;4970495;28;20043;-92
2022/07/02 03:51:37;;;;;;;5.55;1.30;;;11.80;99.90;;;;;;4973493;28;20496;-91
2022/07/02 03:54:03;;;;;;;5.13;1.33;;;11.80;99.90;;;;;;4973402;28;20645;-92
2022/07/02 03:56:28;;;;;;;6.68;1.45;;;11.80;99.90;;;;;;4973733;28;20027;-91
2022/07/02 03:58:54;;;;;;;8.45;1.95;;;11.80;99.90;;;;;;4957894;28;20032;-91
2022/07/02 04:01:20;;;;;;;6.32;1.35;;;11.80;99.90;;;;;;4974372;28;20031;-91
2022/07/02 04:03:45;;;;;;;3.03;1.10;;;11.80;99.90;;;;;;4973465;28;20031;-92
2022/07/02 04:06:11;;;;;;;5.75;1.40;;;11.80;99.90;;;;;;4973200;28;20562;-91
2022/07/02 04:08:38;;;;;;;5.10;1.50;;;11.80;99.90;;;;;;4972973;28;20035;-92
2022/07/02 04:11:04;;;;;;;4.43;1.65;;;11.80;99.90;;;;;;4972724;28;20035;-91
2022/07/02 04:13:30;;;;;;;7.07;1.48;;;11.80;99.90;;;;;;4973129;28;20118;-91
2022/07/02 04:15:55;;;;;;;3.85;1.35;;;11.80;99.90;;;;;;4979480;28;20027;-92
2022/07/02 04:18:21;;;;;;;5.75;1.50;;;11.90;99.90;;;;;;4981952;28;20114;-92
2022/07/02 04:20:47;;;;;;;4.53;1.27;;;11.90;99.90;;;;;;4973593;28;20019;-91
2022/07/02 04:23:13;;;;;;;4.68;1.35;;;11.90;99.90;;;;;;4973849;28;20043;-90
2022/07/02 04:25:39;;;;;;;5.90;1.40;;;12.00;99.90;;;;;;4948660;29;20027;-92
2022/07/02 04:28:07;;;;;;;7.63;1.50;;;12.00;99.90;;;;;;4976347;28;20059;-92
2022/07/02 04:30:33;;;;;;;5.78;1.85;;;12.00;99.90;;;;;;4972568;28;20023;-92
2022/07/02 04:32:59;;;;;;;5.90;1.95;;;12.10;99.90;;;;;;4972527;28;20445;-91
2022/07/02 04:35:24;;;;;;;7.20;1.92;;;12.10;99.90;;;;;;4972414;28;20043;-90
2022/07/02 04:37:51;;;;;;;3.47;1.70;;;12.20;99.90;;;;;;4926826;29;20038;-91
2022/07/02 04:40:17;;;;;;;6.53;2.30;;;12.20;99.90;;;;;;4925773;29;20126;-92
2022/07/02 04:42:42;;;;;;;5.00;1.65;;;12.20;99.90;;;;;;4973235;28;20066;-91
2022/07/02 04:45:08;;;;;;;4.28;1.75;;;12.20;99.90;;;;;;4972872;28;20031;-91
2022/07/02 04:47:34;;;;;;;6.25;1.65;;;12.20;99.90;;;;;;4973070;28;20027;-93
2022/07/02 04:50:00;;;;;;;6.30;2.00;;;12.20;99.90;;;;;;4972611;28;20415;-91
2022/07/02 04:52:25;;;;;;;6.72;1.67;;;12.20;99.90;;;;;;4971714;28;20520;-92
2022/07/02 04:54:51;;;;;;;7.10;1.77;;;12.10;99.90;;;;;;4971595;28;20038;-92
2022/07/02 04:57:17;;;;;;;4.95;1.77;;;12.10;99.90;;;;;;4971194;28;20043;-92
2022/07/02 04:59:44;;;;;;;5.57;1.63;;;12.10;99.90;;;;;;4939452;29;20501;-93
2022/07/02 05:02:11;;;;;;;4.50;1.90;;;12.10;99.90;;;;;;4970915;28;20070;-92
2022/07/02 05:04:41;;;;;;;3.30;1.77;;;12.00;99.90;;;;;;4972028;28;20027;-92
2022/07/02 05:07:10;;;;;;;7.55;1.67;;;12.00;99.90;;;;;;4941033;29;20069;-93
2022/07/02 05:09:36;;;;;;;5.28;1.80;;;12.00;99.90;;;;;;4973096;28;20122;-92
2022/07/02 05:12:02;;;;;;;6.00;1.63;;;12.00;99.90;;;;;;4972576;28;20448;-91
2022/07/02 05:14:29;;;;;;;2.28;1.42;;;12.00;99.90;;;;;;4972470;28;20027;-91
2022/07/02 05:16:58;;;;;;;4.80;1.55;;;12.00;99.90;;;;;;4971954;28;20199;-91
2022/07/02 05:19:24;;;;;;;6.07;2.42;;;12.00;99.90;;;;;;4970800;28;20031;-92
2022/07/02 05:21:50;;;;;;;7.65;1.60;;;12.00;99.90;;;;;;4971313;28;20034;-92
2022/07/02 05:24:16;;;;;;;6.78;2.95;;;12.00;99.90;;;;;;4971160;28;20035;-91
2022/07/02 05:26:41;;;;;;;5.35;1.58;;;12.10;99.90;;;;;;4938973;29;20071;-92
2022/07/02 05:29:07;;;;;;;7.90;1.70;;;12.10;99.90;;;;;;4971291;28;20077;-91
2022/07/02 05:31:33;;;;;;;3.53;1.20;;;12.10;99.90;;;;;;4970855;28;20085;-91
2022/07/02 05:33:58;;;;;;;4.28;1.38;;;12.10;99.90;;;;;;4970581;28;20122;-92
2022/07/02 05:36:24;;;;;;;1.98;1.23;;;12.20;99.90;;;;;;4970742;28;20592;-92
2022/07/02 05:38:50;;;;;;;4.10;1.50;;;12.20;99.90;;;;;;4970616;28;20114;-92
2022/07/02 05:41:16;;;;;;;3.33;1.25;;;12.30;99.90;;;;;;4971100;28;20020;-91
2022/07/02 05:43:41;;;;;;;5.40;1.38;;;12.30;99.90;;;;;;4971464;28;20035;-93
2022/07/02 05:46:07;;;;;;;4.72;1.83;;;12.30;99.90;;;;;;4939681;29;20495;-91
2022/07/02 05:48:36;;;;;;;4.93;1.17;;;12.40;99.90;;;;;;4970538;28;20386;-92
2022/07/02 05:51:01;;;;;;;5.00;1.40;;;12.40;99.90;;;;;;4970423;28;20038;-92
2022/07/02 05:53:27;;;;;;;6.20;1.35;;;12.40;99.90;;;;;;4935482;29;20023;-93
2022/07/02 05:55:53;;;;;;;4.47;1.80;;;12.50;99.90;;;;;;4938101;29;20031;-93
2022/07/02 05:58:19;;;;;;;3.38;1.42;;;12.50;99.90;;;;;;4938223;29;20508;-94
2022/07/02 06:00:45;;;;;;;5.18;1.10;;;12.60;99.90;;;;;;4938152;29;20039;-94
2022/07/02 06:03:10;;;;;;;4.32;1.60;;;12.60;99.90;;;;;;4938332;29;20035;-93
2022/07/02 06:08:20;;;;;;;5.05;1.33;;;12.60;99.90;;;;;;4953866;29;20046;-92
2022/07/02 06:10:46;;;;;;;2.75;1.13;;;12.60;99.90;;;;;;4937627;29;20023;-94
2022/07/02 06:13:14;;;;;;;2.10;1.20;;;12.70;99.90;;;;;;4937286;29;20023;-92
2022/07/02 06:15:40;;;;;;;3.55;1.33;;;12.70;99.90;;;;;;4959705;28;20058;-92
2022/07/02 06:18:08;;;;;;;5.32;1.20;;;12.80;99.90;;;;;;4937824;29;20055;-92
2022/07/02 06:20:38;;;;;;;3.53;1.23;;;12.90;99.90;;;;;;4961323;28;20055;-92
2022/07/02 06:23:03;;;;;;;2.20;1.10;;;12.90;99.90;;;;;;4920013;29;20035;-93
2022/07/02 06:25:29;;;;;;;5.53;1.30;;;12.90;99.90;;;;;;4944346;28;20019;-93
2022/07/02 06:27:57;;;;;;;6.10;1.20;;;13.00;99.90;;;;;;4945094;29;20047;-92
2022/07/02 06:30:23;;;;;;;4.82;1.25;;;13.00;99.90;;;;;;4942475;29;20050;-93
2022/07/02 06:32:49;;;;;;;3.47;1.23;;;13.00;99.90;;;;;;4938557;29;20473;-92
2022/07/02 06:35:18;;;;;;;1.20;1.05;;;13.00;99.90;;;;;;4938257;29;20027;-94
2022/07/02 06:37:44;;;;;;;6.32;1.40;;;13.00;99.90;;;;;;4960157;28;20024;-92
2022/07/02 06:40:10;;;;;;;5.18;1.23;;;13.00;99.90;;;;;;4935109;29;20019;-91
2022/07/02 06:42:36;;;;;;;2.25;1.00;;;13.00;99.90;;;;;;4961263;28;20038;-94
2022/07/02 06:45:03;;;;;;;4.95;1.55;;;13.00;99.90;;;;;;4973892;28;20066;-93
2022/07/02 06:47:30;;;;;;;3.53;1.00;;;13.00;99.90;;;;;;4948554;29;20027;-92
2022/07/02 06:49:57;;;;;;;7.03;2.35;;;13.00;99.90;;;;;;4958032;28;20386;-92
2022/07/02 06:52:26;;;;;;;2.08;1.08;;;13.00;99.90;;;;;;4937041;29;20106;-92
2022/07/02 06:54:51;;;;;;;2.88;1.05;;;13.00;99.90;;;;;;4933224;29;20065;-91
2022/07/02 06:57:17;;;;;;;2.10;1.08;;;13.00;99.90;;;;;;4936848;29;20051;-90
2022/07/02 06:59:43;;;;;;;3.53;1.30;;;13.10;99.90;;;;;;4936917;29;20063;-91
2022/07/02 07:02:12;;;;;;;2.92;0.98;;;13.10;99.90;;;;;;4938081;29;20035;-90
2022/07/02 07:04:38;;;;;;;3.28;0.80;;;13.10;99.90;;;;;;4939527;29;20027;-92
2022/07/02 07:07:09;;;;;;;0.60;0.60;;;13.20;99.90;;;;;;4951086;28;20094;-92
2022/07/02 07:09:35;;;;;;;3.80;1.23;;;13.20;99.90;;;;;;4929833;29;20561;-90
2022/07/02 07:12:04;;;;;;;1.63;0.85;;;13.30;99.90;;;;;;4949362;28;20039;-89
2022/07/02 07:14:31;;;;;;;1.90;0.90;;;13.30;99.90;;;;;;4938772;29;20027;-90
2022/07/02 07:16:57;;;;;;;1.63;0.90;;;13.40;99.90;;;;;;4937708;29;20091;-90
2022/07/02 07:19:24;;;;;;;1.42;0.68;;;13.40;99.90;;;;;;4940322;28;20503;-90
2022/07/02 07:21:49;;;;;;;3.17;0.80;;;13.60;99.90;;;;;;4947960;29;20031;-92
2022/07/02 07:24:15;;;;;;;4.93;0.70;;;13.60;99.90;;;;;;4951657;28;20023;-92
2022/07/02 07:26:41;;;;;;;0.50;0.45;;;13.70;99.90;;;;;;4959528;28;20027;-91
2022/07/02 07:29:08;;;;;;;0.65;0.57;;;13.80;99.90;;;;;;4923844;29;20052;-91
2022/07/02 07:31:35;;;;;;;0.63;0.50;;;13.90;99.90;;;;;;4932925;29;20015;-92
2022/07/02 07:34:02;;;;;;;1.75;0.63;;;13.90;99.90;;;;;;4921519;29;20032;-90
2022/07/02 07:36:28;;;;;;;0.77;0.40;;;14.00;99.90;;;;;;4921827;29;20030;-90
2022/07/02 07:38:56;;;;;;;2.03;0.40;;;14.00;99.90;;;;;;4922186;29;20071;-91
2022/07/02 07:41:23;;;;;;;0.45;0.30;;;14.10;99.90;;;;;;4922549;29;20485;-90
2022/07/02 07:43:51;;;;;;;0.63;0.38;;;14.20;99.90;;;;;;4922561;29;20035;-91
2022/07/02 07:46:18;;;;;;;0.60;0.40;;;14.20;99.90;;;;;;4922554;29;20034;-91
2022/07/02 07:48:44;;;;;;;2.40;0.43;;;14.40;99.90;;;;;;4922013;29;20039;-91
2022/07/02 07:51:09;;;;;;;0.43;0.32;;;14.50;99.90;;;;;;4922091;29;20024;-91
2022/07/02 07:53:35;;;;;;;0.40;0.40;;;14.50;99.90;;;;;;4918633;29;20032;-91
2022/07/02 07:56:01;;;;;;;1.15;0.20;;;14.60;99.90;;;;;;4907512;29;20099;-89
2022/07/02 07:58:29;;;;;;;0.65;0.30;;;14.60;99.90;;;;;;4939436;29;20076;-91
2022/07/02 08:00:55;;;;;;;0.40;0.10;;;14.60;99.90;;;;;;4920609;29;20031;-90
2022/07/02 08:03:22;;;;;;;0.10;0.10;;;14.60;99.90;;;;;;4908415;29;20186;-89
2022/07/02 08:05:53;;;;;;;0.10;0.08;;;14.60;99.90;;;;;;4913597;29;20106;-92
2022/07/02 08:08:23;;;;;;;0.90;0.22;;;14.60;99.90;;;;;;4914424;29;20060;-91
2022/07/02 08:10:49;;;;;;;0.20;0.20;;;14.50;99.90;;;;;;4936925;29;20042;-91
2022/07/02 08:13:16;;;;;;;1.73;0.30;;;14.50;99.90;;;;;;4909069;29;20055;-90
2022/07/02 08:15:44;;;;;;;0.45;0.10;;;14.50;99.90;;;;;;4916798;29;20020;-94
2022/07/02 08:18:09;;;;;;;0.20;0.20;;;14.50;99.90;;;;;;4917435;29;20123;-91
2022/07/02 08:20:36;;;;;;;0.57;0.30;;;14.50;99.90;;;;;;4916168;29;20427;-91
2022/07/02 08:23:01;;;;;;;0.20;0.20;;;14.50;99.90;;;;;;4917163;29;20052;-92
2022/07/02 08:25:27;;;;;;;0.17;0.17;;;14.40;99.90;;;;;;4912734;29;20039;-91
2022/07/02 08:27:53;;;;;;;0.20;0.20;;;14.30;99.90;;;;;;4920795;29;20079;-91
2022/07/02 08:30:19;;;;;;;0.57;0.17;;;14.30;99.90;;;;;;4929837;29;20040;-94
2022/07/02 08:32:45;;;;;;;0.38;0.20;;;14.40;99.90;;;;;;4932476;29;20027;-90
2022/07/02 08:35:11;;;;;;;0.30;0.30;;;14.40;99.90;;;;;;4929727;29;20027;-94
2022/07/02 08:37:37;;;;;;;1.75;0.35;;;14.50;99.90;;;;;;4929676;29;20111;-93
2022/07/02 08:40:03;;;;;;;0.95;0.38;;;14.50;99.90;;;;;;4931798;29;20114;-92
2022/07/02 08:42:30;;;;;;;0.30;0.20;;;14.60;99.90;;;;;;4934251;29;20028;-93
2022/07/02 08:45:03;;;;;;;1.75;0.40;;;14.70;99.90;;;;;;4934960;29;20492;-93
2022/07/02 08:47:30;;;;;;;2.53;0.43;;;14.80;99.90;;;;;;4956139;29;20031;-93
2022/07/02 08:49:58;;;;;;;3.35;0.38;;;14.90;99.90;;;;;;4932643;29;20038;-94
2022/07/02 08:52:25;;;;;;;0.80;0.57;;;15.00;99.90;;;;;;4930690;29;20051;-89
2022/07/02 08:54:52;;;;;;;2.17;1.02;;;15.10;99.90;;;;;;4924797;29;20034;-91
2022/07/02 08:57:21;;;;;;;1.95;0.50;;;15.20;99.90;;;;;;4933975;29;20421;-92
2022/07/02 08:59:47;;;;;;;2.33;0.98;;;15.20;99.90;;;;;;4931764;29;20019;-92
2022/07/02 09:02:14;;;;;;;0.57;0.47;;;15.30;99.90;;;;;;4930347;29;20028;-91
2022/07/02 09:04:44;;;;;;;0.60;0.50;;;15.30;99.90;;;;;;4934520;29;20027;-92
2022/07/02 09:07:12;;;;;;;0.43;0.43;;;15.40;99.90;;;;;;4936782;29;20027;-93
2022/07/02 09:09:41;;;;;;;2.58;0.55;;;15.60;99.90;;;;;;4940966;29;20063;-93
2022/07/02 09:12:15;;;;;;;1.30;0.43;;;15.80;99.90;;;;;;4939480;29;20023;-93
2022/07/02 09:14:43;;;;;;;1.60;0.40;;;16.10;99.90;;;;;;4927088;29;20035;-93
2022/07/02 09:17:11;;;;;;;2.25;0.50;;;16.30;99.90;;;;;;4939784;29;20027;-92
2022/07/02 09:19:38;;;;;;;1.95;0.70;;;16.30;99.90;;;;;;4938788;29;20035;-89
2022/07/02 09:22:05;;;;;;;0.50;0.40;;;16.40;99.90;;;;;;4947112;29;20105;-91
2022/07/02 09:24:37;;;;;;;2.55;0.70;;;16.50;99.90;;;;;;4956279;29;20019;-91
2022/07/02 09:27:13;;;;;;;1.95;0.80;;;16.50;99.90;;;;;;4939971;29;20027;-93
2022/07/02 09:29:47;;;;;;;2.90;0.80;;;16.60;99.90;;;;;;4935544;29;20027;-93
2022/07/02 09:32:14;;;;;;;1.00;0.70;;;16.70;99.90;;;;;;4940053;29;20091;-91
2022/07/02 09:34:45;;;;;;;4.40;0.60;;;16.80;99.90;;;;;;4939307;29;20488;-93
2022/07/02 09:37:16;;;;;;;2.08;0.50;;;17.00;99.90;;;;;;4939189;29;20031;-92
2022/07/02 09:39:43;;;;;;;2.38;0.52;;;17.20;99.90;;;;;;4940944;29;20086;-90
2022/07/02 09:42:22;;;;;;;5.97;0.90;;;17.30;99.90;;;;;;4945741;29;20031;-90
2022/07/02 09:44:48;;;;;;;2.03;0.73;;;17.60;99.90;;;;;;4939232;29;20031;-92
2022/07/02 09:47:14;;;;;;;1.27;0.65;;;17.80;99.90;;;;;;4941132;28;20026;-92
2022/07/02 09:49:50;;;;;;;2.33;0.70;;;17.90;99.90;;;;;;4939255;29;20500;-91
2022/07/02 09:52:17;;;;;;;3.72;0.70;;;18.10;99.90;;;;;;4949904;28;20020;-90
2022/07/02 09:54:44;;;;;;;1.92;0.73;;;18.10;99.90;;;;;;4935610;29;20544;-92
2022/07/02 09:57:11;;;;;;;2.70;0.70;;;18.20;99.90;;;;;;4939970;29;20023;-93
2022/07/02 09:59:39;;;;;;;2.95;0.73;;;18.40;99.90;;;;;;4942093;29;20030;-90
2022/07/02 10:02:05;;;;;;;3.85;0.70;;;18.70;98.70;;;;;;4945358;29;20106;-91
2022/07/02 10:04:33;;;;;;;2.20;0.80;;;18.80;96.50;;;;;;4943172;29;20493;-89
2022/07/02 10:07:00;;;;;;;1.92;0.70;;;18.80;94.80;;;;;;4947099;29;20043;-89
2022/07/02 10:09:27;;;;;;;0.88;0.60;;;18.90;94.20;;;;;;4939545;29;20035;-90
2022/07/02 10:11:54;;;;;;;4.85;0.70;;;18.90;92.40;;;;;;4935497;29;20047;-93
2022/07/02 10:14:23;;;;;;;2.85;0.73;;;19.00;92.50;;;;;;4936778;28;20023;-90
2022/07/02 10:16:51;;;;;;;4.60;1.45;;;19.00;91.90;;;;;;4946392;28;20480;-90
2022/07/02 10:19:18;;;;;;;3.10;1.20;;;19.10;92.40;;;;;;4943789;29;20039;-93
2022/07/02 10:21:44;;;;;;;2.80;0.70;;;19.20;90.60;;;;;;4937713;29;20465;-92
2022/07/02 10:24:12;;;;;;;4.13;1.23;;;19.20;90.40;;;;;;4938285;29;20038;-91
2022/07/02 10:26:38;;;;;;;1.77;0.80;;;19.30;90.00;;;;;;4941569;29;20029;-91
2022/07/02 10:29:04;;;;;;;1.25;0.70;;;19.50;90.10;;;;;;4922985;29;20055;-90
2022/07/02 10:31:40;;;;;;;2.10;0.80;;;19.80;89.90;;;;;;4919400;29;20475;-93
2022/07/02 10:34:21;;;;;;;3.42;0.80;;;20.00;88.30;;;;;;4919966;29;20046;-91
2022/07/02 10:36:47;;;;;;;3.65;0.80;;;20.00;86.40;;;;;;4915207;29;20131;-93
2022/07/02 10:39:16;;;;;;;1.30;0.50;;;19.90;85.50;;;;;;4916915;29;20042;-92
2022/07/02 10:41:42;;;;;;;4.05;0.60;;;19.90;85.90;;;;;;4918844;29;20047;-93
2022/07/02 10:44:09;;;;;;;3.03;0.60;;;19.80;85.00;;;;;;4919690;29;20083;-92
2022/07/02 10:46:36;;;;;;;5.57;0.88;;;19.70;83.20;;;;;;4935431;29;20035;-92
2022/07/02 10:49:05;;;;;;;7.57;1.02;;;19.60;83.20;;;;;;4918524;29;20043;-94
2022/07/02 10:51:35;;;;;;;2.28;0.70;;;19.50;82.90;;;;;;4919066;29;20048;-92
2022/07/02 10:54:03;;;;;;;;;;;19.40;83.80;;;;;;4923054;29;20027;-92
2022/07/02 10:56:41;;;;;;;4.78;0.57;;;19.30;83.70;;;;;;4930325;29;19970;-92
2022/07/02 10:59:22;;;;;;;2.08;0.60;;;19.10;82.60;;;;;;4934186;29;20032;-93
2022/07/02 11:01:59;;;;;;;5.32;0.98;;;18.90;84.10;;;;;;4929850;29;20038;-92
2022/07/02 11:04:24;;;;;;;3.55;0.75;;;18.80;85.00;;;;;;4937218;29;20020;-93
2022/07/02 11:06:50;;;;;;;1.83;0.75;;;18.90;85.60;;;;;;4926754;29;20158;-93
2022/07/02 11:09:16;;;;;;;3.03;0.73;;;19.10;86.20;;;;;;4928310;29;20028;-92
2022/07/02 11:11:41;;;;;;;6.38;0.88;;;19.20;86.40;;;;;;4927290;29;20020;-91
2022/07/02 11:14:12;;;;;;;2.92;1.08;;;19.20;85.80;;;;;;4927491;29;20039;-93
2022/07/02 11:16:49;;;;;;;3.20;0.70;;;19.10;85.80;;;;;;4925938;29;20119;-92
2022/07/02 11:19:26;;;;;;;2.08;0.70;;;19.10;86.00;;;;;;4921726;29;20044;-93
2022/07/02 11:21:58;;;;;;;4.43;1.15;;;19.00;85.30;;;;;;4916885;29;20028;-93
2022/07/02 11:24:28;;;;;;;2.15;0.85;;;18.90;85.30;;;;;;4916808;29;20028;-93
2022/07/02 11:26:55;;;;;;;4.90;0.93;;;18.90;85.60;;;;;;4917668;29;20035;-91
2022/07/02 11:29:27;;;;;;;2.30;0.80;;;18.80;85.00;;;;;;4936719;29;20067;-93
2022/07/02 11:31:59;;;;;;;2.13;0.85;;;18.90;85.70;;;;;;4931174;29;20036;-92
2022/07/02 11:34:33;;;;;;;5.13;0.70;;;18.90;85.70;;;;;;4938000;29;20031;-93
2022/07/02 11:36:59;;;;;;;2.90;0.65;;;18.80;84.60;;;;;;4935750;28;20086;-95
2022/07/02 11:39:29;;;;;;;1.35;0.70;;;18.80;84.10;;;;;;4942947;29;20032;-91
2022/07/02 11:41:54;;;;;;;3.30;1.02;;;18.70;83.30;;;;;;4942074;29;20515;-93
2022/07/02 11:44:30;;;;;;;2.03;0.80;;;18.60;82.90;;;;;;4944395;29;20027;-92
2022/07/02 11:47:00;;;;;;;2.97;0.70;;;18.50;82.70;;;;;;4935286;29;20074;-92
2022/07/02 11:49:31;;;;;;;2.30;0.73;;;18.30;82.70;;;;;;4941535;29;20121;-92
2022/07/02 11:51:58;;;;;;;1.67;0.80;;;18.30;82.90;;;;;;4938197;29;20032;-94
2022/07/02 11:54:27;;;;;;;2.67;0.55;;;18.30;82.60;;;;;;4960930;29;20128;-92
2022/07/02 11:56:53;;;;;;;2.35;0.63;;;18.40;82.50;;;;;;4965048;29;20113;-92
2022/07/02 11:59:21;;;;;;;3.60;1.25;;;18.40;82.50;;;;;;4932153;29;20032;-93
2022/07/02 12:01:49;;;;;;;3.15;0.88;;;18.50;82.80;;;;;;4942495;29;20032;-94
2022/07/02 12:04:19;;;;;;;2.40;0.80;;;18.60;83.20;;;;;;4949693;28;20342;-93
2022/07/02 12:06:51;;;;;;;3.10;0.68;;;18.80;83.20;;;;;;4932271;29;20540;-93
2022/07/02 12:09:22;;;;;;;3.97;0.80;;;19.10;82.50;;;;;;4934586;29;20035;-91
2022/07/02 12:11:50;;;;;;;2.72;0.80;;;19.40;81.90;;;;;;4940383;29;20023;-91
2022/07/02 12:14:29;;;;;;;2.15;0.70;;;19.80;81.50;;;;;;4954718;29;20046;-93
2022/07/02 12:16:58;;;;;;;3.15;1.08;;;20.00;80.00;;;;;;4939405;29;20051;-93
2022/07/02 12:19:37;;;;;;;2.85;0.80;;;20.00;78.80;;;;;;4955017;29;20042;-94
2022/07/02 12:22:05;;;;;;;3.72;0.77;;;19.90;77.60;;;;;;4957355;29;20109;-91
2022/07/02 12:24:35;;;;;;;3.38;0.68;;;19.70;76.40;;;;;;4946154;28;20489;-91
2022/07/02 12:27:05;;;;;;;5.07;0.95;;;19.40;76.30;;;;;;4942136;29;20027;-91
2022/07/02 12:32:22;;;;;;;1.42;0.50;;;18.90;77.00;;;;;;4939418;29;20031;-92
2022/07/02 12:35:16;;;;;;;3.60;0.50;;;18.80;77.50;;;;;;4930533;29;20027;-92
2022/07/02 12:37:49;;;;;;;4.15;1.15;;;18.60;78.00;;;;;;4954520;28;20038;-92
2022/07/02 12:40:24;;;;;;;5.75;0.98;;;18.50;78.50;;;;;;4925629;29;20028;-91
2022/07/02 12:42:59;;;;;;;5.25;0.85;;;18.50;78.80;;;;;;4922953;29;20054;-91
2022/07/02 12:45:40;;;;;;;7.13;0.90;;;18.40;79.30;;;;;;4920002;29;20028;-94
2022/07/02 12:48:16;;;;;;;3.25;0.80;;;18.40;79.90;;;;;;4921014;29;20035;-91
2022/07/02 12:50:48;;;;;;;4.40;0.68;;;18.30;80.20;;;;;;4924685;29;20036;-91
2022/07/02 12:53:20;;;;;;;2.13;1.20;;;18.30;80.70;;;;;;4926444;29;20027;-93
2022/07/02 12:55:58;;;;;;;6.57;0.80;;;18.30;80.90;;;;;;4920202;29;20040;-92